createdAt,value
2023-04-15T00:01:37.221Z,99625.94
2023-04-15T00:04:04.732Z,99618.47
2023-04-15T00:06:31.310Z,99625.28
2023-04-15T00:08:57.712Z,99626.94
2023-04-15T00:11:24.436Z,99616.38
2023-04-15T00:13:51.149Z,99626.94
2023-04-15T00:16:17.670Z,99619.13
2023-04-15T00:18:44.192Z,99619.66
2023-04-15T00:21:10.540Z,99624.56
2023-04-15T00:23:36.913Z,99619.56
2023-04-15T00:26:03.267Z,99615.69
2023-04-15T00:28:30.960Z,99611.88
2023-04-15T00:30:57.551Z,99613.41
2023-04-15T00:33:23.925Z,99617.81
2023-04-15T00:35:50.856Z,99611.53
2023-04-15T00:38:17.655Z,99616.81
2023-04-15T00:40:44.179Z,99617.69
2023-04-15T00:43:10.597Z,99614.06
2023-04-15T00:45:37.298Z,99603.47
2023-04-15T00:48:04.699Z,99607.91
2023-04-15T00:50:31.104Z,99607.16
2023-04-15T00:52:57.409Z,99610.75
2023-04-15T00:55:23.726Z,99603.25
2023-04-15T00:57:50.597Z,99596.25
2023-04-15T01:00:16.909Z,99602.16
2023-04-15T01:02:43.740Z,99592.34
2023-04-15T01:05:10.208Z,99606.53
2023-04-15T01:07:36.740Z,99604.66
2023-04-15T01:10:04.474Z,99598.91
2023-04-15T01:12:33.007Z,99601.97
2023-04-15T01:14:59.708Z,99599.88
2023-04-15T01:17:26.098Z,99596.13
2023-04-15T01:19:52.849Z,99594.94
2023-04-15T01:22:19.572Z,99599.94
2023-04-15T01:24:55.392Z,99597.25
2023-04-15T01:27:22.388Z,99595.13
2023-04-15T01:29:48.708Z,99603.91
2023-04-15T01:32:15.525Z,99606.75
2023-04-15T01:34:42.148Z,99607.88
2023-04-15T01:37:08.433Z,99602.19
2023-04-15T01:39:35.293Z,99599.53
2023-04-15T01:42:01.650Z,99605.38
2023-04-15T01:44:28.104Z,99606.00
2023-04-15T01:46:54.500Z,99604.25
2023-04-15T01:49:20.825Z,99605.91
2023-04-15T01:51:47.211Z,99614.69
2023-04-15T01:54:13.523Z,99606.41
2023-04-15T01:56:39.917Z,99614.25
2023-04-15T01:59:06.285Z,99615.69
2023-04-15T02:01:32.781Z,99609.31
2023-04-15T02:03:59.280Z,99607.25
2023-04-15T02:06:25.660Z,99609.91
2023-04-15T02:08:52.029Z,99600.03
2023-04-15T02:11:18.337Z,99608.81
2023-04-15T02:13:44.680Z,99606.03
2023-04-15T02:16:20.660Z,99606.13
2023-04-15T02:18:47.396Z,99608.81
2023-04-15T02:21:14.372Z,99607.25
2023-04-15T02:23:40.967Z,99605.47
2023-04-15T02:26:08.013Z,99603.78
2023-04-15T02:28:34.398Z,99606.59
2023-04-15T02:31:02.111Z,99608.94
2023-04-15T02:33:28.652Z,99604.59
2023-04-15T02:35:55.025Z,99608.97
2023-04-15T02:38:21.434Z,99616.66
2023-04-15T02:40:49.684Z,99609.56
2023-04-15T02:43:17.171Z,99619.84
2023-04-15T02:45:43.954Z,99614.22
2023-04-15T02:48:10.674Z,99613.88
2023-04-15T02:50:39.767Z,99613.59
2023-04-15T02:53:06.881Z,99616.59
2023-04-15T02:55:33.248Z,99615.47
2023-04-15T02:58:00.671Z,99612.81
2023-04-15T03:00:28.235Z,99614.47
2023-04-15T03:02:59.438Z,99617.38
2023-04-15T03:05:26.065Z,99622.75
2023-04-15T03:07:53.013Z,99620.44
2023-04-15T03:10:20.011Z,99614.44
2023-04-15T03:12:46.516Z,99620.69
2023-04-15T03:15:12.930Z,99629.69
2023-04-15T03:17:39.346Z,99620.81
2023-04-15T03:20:06.697Z,99625.50
2023-04-15T03:22:33.300Z,99619.66
2023-04-15T03:24:59.878Z,99622.91
2023-04-15T03:27:26.165Z,99628.78
2023-04-15T03:29:52.636Z,99629.47
2023-04-15T03:32:19.205Z,99628.44
2023-04-15T03:34:45.650Z,99620.69
2023-04-15T03:37:12.044Z,99615.75
2023-04-15T03:39:38.885Z,99626.75
2023-04-15T03:42:05.432Z,99624.81
2023-04-15T03:44:32.772Z,99624.72
2023-04-15T03:46:59.300Z,99622.09
2023-04-15T03:49:25.689Z,99631.34
2023-04-15T03:51:52.212Z,99624.75
2023-04-15T03:54:18.504Z,99618.59
2023-04-15T03:56:44.911Z,99627.00
2023-04-15T03:59:11.378Z,99615.25
2023-04-15T04:01:37.769Z,99625.34
2023-04-15T04:04:04.203Z,99620.69
2023-04-15T04:06:31.037Z,99633.56
2023-04-15T04:08:57.603Z,99627.28
2023-04-15T04:11:23.955Z,99616.53
2023-04-15T04:13:50.286Z,99621.75
2023-04-15T04:16:17.277Z,99628.50
2023-04-15T04:18:43.681Z,99625.91
2023-04-15T04:21:10.089Z,99620.88
2023-04-15T04:23:36.481Z,99615.47
2023-04-15T04:26:02.802Z,99617.25
2023-04-15T04:28:29.179Z,99612.13
2023-04-15T04:30:56.188Z,99611.34
2023-04-15T04:33:22.538Z,99608.41
2023-04-15T04:35:48.821Z,99614.16
2023-04-15T04:38:15.378Z,99614.25
2023-04-15T04:40:41.757Z,99615.97
2023-04-15T04:43:08.121Z,99613.31
2023-04-15T04:45:34.547Z,99616.13
2023-04-15T04:48:01.159Z,99627.09
2023-04-15T04:50:27.571Z,99621.31
2023-04-15T04:55:20.474Z,99618.66
2023-04-15T04:57:47.281Z,99616.88
2023-04-15T05:00:13.958Z,99620.66
2023-04-15T05:02:42.404Z,99623.56
2023-04-15T05:05:09.556Z,99626.13
2023-04-15T05:07:36.068Z,99628.00
2023-04-15T05:10:02.377Z,99626.91
2023-04-15T05:12:28.768Z,99628.16
2023-04-15T05:14:55.076Z,99628.34
2023-04-15T05:17:21.836Z,99640.00
2023-04-15T05:19:48.361Z,99635.41
2023-04-15T05:22:14.714Z,99638.69
2023-04-15T05:24:41.171Z,99645.44
2023-04-15T05:27:08.497Z,99647.06
2023-04-15T05:29:35.000Z,99644.19
2023-04-15T05:32:01.634Z,99646.66
2023-04-15T05:34:28.201Z,99651.13
2023-04-15T05:36:54.541Z,99651.53
2023-04-15T05:39:21.333Z,99658.47
2023-04-15T05:41:47.934Z,99663.16
2023-04-15T05:44:14.264Z,99657.16
2023-04-15T05:46:40.835Z,99657.56
2023-04-15T05:49:07.730Z,99660.97
2023-04-15T05:51:34.086Z,99663.81
2023-04-15T05:54:01.220Z,99672.88
2023-04-15T05:56:27.513Z,99673.22
2023-04-15T05:58:54.021Z,99673.53
2023-04-15T06:01:20.616Z,99666.78
2023-04-15T06:03:47.077Z,99666.84
2023-04-15T06:06:14.237Z,99662.81
2023-04-15T06:08:41.048Z,99662.13
2023-04-15T06:11:07.383Z,99658.03
2023-04-15T06:13:34.779Z,99667.84
2023-04-15T06:16:01.195Z,99662.94
2023-04-15T06:18:27.593Z,99664.94
2023-04-15T06:20:53.956Z,99665.34
2023-04-15T06:23:20.301Z,99673.53
2023-04-15T06:25:46.706Z,99669.09
2023-04-15T06:28:13.079Z,99666.88
2023-04-15T06:30:39.971Z,99664.53
2023-04-15T06:33:06.481Z,99674.69
2023-04-15T06:35:32.829Z,99683.88
2023-04-15T06:37:59.175Z,99679.31
2023-04-15T06:40:25.511Z,99676.34
2023-04-15T06:42:51.992Z,99676.09
2023-04-15T06:45:18.351Z,99675.00
2023-04-15T06:47:44.693Z,99683.47
2023-04-15T06:50:11.542Z,99685.41
2023-04-15T06:52:38.050Z,99681.94
2023-04-15T06:55:05.217Z,99680.16
2023-04-15T06:57:32.758Z,99675.88
2023-04-15T07:00:00.969Z,99680.41
2023-04-15T07:02:27.426Z,99674.94
2023-04-15T07:04:54.225Z,99673.81
2023-04-15T07:07:20.558Z,99671.63
2023-04-15T07:09:47.280Z,99669.03
2023-04-15T07:12:13.764Z,99661.94
2023-04-15T07:14:40.157Z,99665.00
2023-04-15T07:17:06.696Z,99660.19
2023-04-15T07:19:33.109Z,99657.13
2023-04-15T07:21:59.423Z,99663.50
2023-04-15T07:24:26.789Z,99663.50
2023-04-15T07:26:55.002Z,99657.84
2023-04-15T07:29:21.554Z,99665.34
2023-04-15T07:31:47.904Z,99672.41
2023-04-15T07:34:14.538Z,99675.25
2023-04-15T07:36:41.063Z,99669.28
2023-04-15T07:39:07.594Z,99675.28
2023-04-15T07:41:34.213Z,99677.69
2023-04-15T07:44:00.623Z,99683.44
2023-04-15T07:46:29.625Z,99694.22
2023-04-15T07:48:56.263Z,99685.13
2023-04-15T07:51:22.813Z,99680.53
2023-04-15T07:53:50.330Z,99685.63
2023-04-15T07:56:16.696Z,99686.72
2023-04-15T07:58:43.501Z,99690.63
2023-04-15T08:01:09.827Z,99686.00
2023-04-15T08:03:36.322Z,99689.53
2023-04-15T08:06:03.110Z,99683.19
2023-04-15T08:08:29.423Z,99679.59
2023-04-15T08:10:55.748Z,99680.38
2023-04-15T08:13:22.180Z,99677.78
2023-04-15T08:16:14.499Z,99680.34
2023-04-15T08:18:41.151Z,99678.63
2023-04-15T08:21:07.435Z,99684.06
2023-04-15T08:23:34.512Z,99687.66
2023-04-15T08:26:00.848Z,99684.06
2023-04-15T08:28:27.143Z,99683.06
2023-04-15T08:30:53.466Z,99690.00
2023-04-15T08:33:19.856Z,99680.88
2023-04-15T08:35:47.053Z,99683.13
2023-04-15T08:38:13.456Z,99680.06
2023-04-15T08:40:42.491Z,99686.88
2023-04-15T08:43:24.051Z,99688.44
2023-04-15T08:45:51.721Z,99686.13
2023-04-15T08:48:18.946Z,99682.22
2023-04-15T08:50:47.868Z,99692.47
2023-04-15T08:53:15.443Z,99685.00
2023-04-15T08:55:47.399Z,99684.44
2023-04-15T08:58:14.988Z,99690.91
2023-04-15T09:00:42.097Z,99677.56
2023-04-15T09:03:09.477Z,99687.25
2023-04-15T09:05:37.057Z,99681.03
2023-04-15T09:08:04.324Z,99683.41
2023-04-15T09:10:31.639Z,99687.25
2023-04-15T09:12:58.574Z,99693.53
2023-04-15T09:15:27.398Z,99685.47
2023-04-15T09:17:53.725Z,99693.84
2023-04-15T09:20:20.199Z,99712.41
2023-04-15T09:22:48.688Z,99702.59
2023-04-15T09:25:14.909Z,99701.31
2023-04-15T09:28:01.713Z,99707.78
2023-04-15T09:30:29.436Z,99708.28
2023-04-15T09:33:02.169Z,99712.28
2023-04-15T09:35:28.849Z,99715.19
2023-04-15T09:38:04.254Z,99718.50
2023-04-15T09:40:41.926Z,99716.75
2023-04-15T09:43:12.716Z,99727.19
2023-04-15T09:45:46.839Z,99718.78
2023-04-15T09:48:20.729Z,99728.59
2023-04-15T09:50:48.959Z,99728.69
2023-04-15T09:53:20.584Z,99715.84
2023-04-15T09:55:51.248Z,99724.13
2023-04-15T09:58:25.585Z,99729.69
2023-04-15T10:00:53.884Z,99732.16
2023-04-15T10:03:22.575Z,99720.44
2023-04-15T10:05:51.390Z,99726.28
2023-04-15T10:08:19.670Z,99729.97
2023-04-15T10:10:47.934Z,99738.53
2023-04-15T10:13:19.539Z,99727.31
2023-04-15T10:15:51.660Z,99737.31
2023-04-15T10:18:19.757Z,99740.66
2023-04-15T10:20:46.780Z,99744.78
2023-04-15T10:23:13.635Z,99746.56
2023-04-15T10:25:40.702Z,99743.88
2023-04-15T10:28:07.790Z,99762.50
2023-04-15T10:30:34.530Z,99762.44
2023-04-15T10:33:02.902Z,99751.19
2023-04-15T10:35:30.861Z,99753.53
2023-04-15T10:37:57.514Z,99757.69
2023-04-15T10:40:29.352Z,99749.44
2023-04-15T10:42:56.487Z,99760.25
2023-04-15T10:45:27.240Z,99770.28
2023-04-15T10:47:58.146Z,99772.22
2023-04-15T10:50:29.662Z,99778.06
2023-04-15T10:52:56.920Z,99772.34
2023-04-15T10:55:25.898Z,99780.13
2023-04-15T10:57:54.290Z,99789.78
2023-04-15T11:00:25.447Z,99779.28
2023-04-15T11:02:57.069Z,99790.81
2023-04-15T11:05:41.456Z,99788.09
2023-04-15T11:08:09.276Z,99795.66
2023-04-15T11:10:35.781Z,99792.59
2023-04-15T11:13:15.918Z,99796.28
2023-04-15T11:15:46.693Z,99811.06
2023-04-15T11:18:17.164Z,99788.41
2023-04-15T11:20:48.803Z,99799.28
2023-04-15T11:23:16.101Z,99801.31
2023-04-15T11:25:43.538Z,99789.56
2023-04-15T11:28:11.968Z,99795.75
2023-04-15T11:30:39.373Z,99791.94
2023-04-15T11:33:11.989Z,99803.16
2023-04-15T11:35:40.915Z,99805.97
2023-04-15T11:38:12.154Z,99811.56
2023-04-15T11:40:40.185Z,99810.19
2023-04-15T11:43:21.303Z,99817.38
2023-04-15T11:45:58.882Z,99812.88
2023-04-15T11:48:33.784Z,99817.19
2023-04-15T11:51:07.967Z,99823.03
2023-04-15T11:53:41.406Z,99829.06
2023-04-15T11:56:16.574Z,99832.22
2023-04-15T11:58:43.391Z,99835.56
2023-04-15T12:01:09.778Z,99834.72
2023-04-15T12:03:41.533Z,99838.56
2023-04-15T12:06:21.091Z,99846.16
2023-04-15T12:08:50.540Z,99841.16
2023-04-15T12:11:17.191Z,99849.28
2023-04-15T12:13:46.892Z,99846.09
2023-04-15T12:16:13.219Z,99843.28
2023-04-15T12:18:39.601Z,99854.50
2023-04-15T12:21:10.668Z,99855.41
2023-04-15T12:23:48.770Z,99855.41
2023-04-15T12:26:15.084Z,99857.34
2023-04-15T12:28:44.203Z,99857.28
2023-04-15T12:31:11.568Z,99862.13
2023-04-15T12:33:38.115Z,99878.41
2023-04-15T12:36:04.624Z,99878.47
2023-04-15T12:38:31.618Z,99872.00
2023-04-15T12:40:58.627Z,99872.16
2023-04-15T12:43:25.335Z,99882.81
2023-04-15T12:45:51.757Z,99881.53
2023-04-15T12:48:18.364Z,99870.13
2023-04-15T12:50:44.642Z,99889.53
2023-04-15T12:53:11.021Z,99889.34
2023-04-15T12:55:37.344Z,99883.13
2023-04-15T12:58:03.706Z,99908.25
2023-04-15T13:00:30.056Z,99897.94
2023-04-15T13:02:56.470Z,99909.53
2023-04-15T13:05:22.915Z,99904.44
2023-04-15T13:07:49.232Z,99900.97
2023-04-15T13:10:15.703Z,99923.84
2023-04-15T13:12:42.136Z,99923.91
2023-04-15T13:15:11.345Z,99937.41
2023-04-15T13:17:37.973Z,99934.81
2023-04-15T13:20:04.609Z,99946.41
2023-04-15T13:22:31.462Z,99942.97
2023-04-15T13:24:57.745Z,99940.31
2023-04-15T13:27:24.058Z,99951.88
2023-04-15T13:29:50.362Z,99956.25
2023-04-15T13:32:16.739Z,99961.53
2023-04-15T13:34:43.027Z,99963.13
2023-04-15T13:37:09.865Z,99959.53
2023-04-15T13:39:36.342Z,99970.09
2023-04-15T13:42:03.151Z,99980.91
2023-04-15T13:44:29.664Z,99979.19
2023-04-15T13:46:56.139Z,99986.31
2023-04-15T13:49:22.549Z,99990.75
2023-04-15T13:51:48.850Z,99987.25
2023-04-15T13:54:15.205Z,99998.81
2023-04-15T13:56:41.553Z,99985.50
2023-04-15T13:59:08.569Z,99992.63
2023-04-15T14:01:35.687Z,99997.06
2023-04-15T14:04:02.442Z,99994.44
2023-04-15T14:06:31.493Z,99997.94
2023-04-15T14:08:57.851Z,100002.38
2023-04-15T14:11:24.270Z,100003.22
2023-04-15T14:13:50.636Z,100013.88
2023-04-15T14:16:17.274Z,100005.91
2023-04-15T14:18:44.592Z,100013.84
2023-04-15T14:21:11.001Z,100010.22
2023-04-15T14:23:37.341Z,100023.31
2023-04-15T14:26:03.965Z,100025.06
2023-04-15T14:28:30.312Z,100028.66
2023-04-15T14:30:56.654Z,100041.00
2023-04-15T14:33:23.111Z,100050.63
2023-04-15T14:35:49.889Z,100041.72
2023-04-15T14:38:16.284Z,100048.72
2023-04-15T14:40:42.724Z,100057.53
2023-04-15T14:43:09.114Z,100045.22
2023-04-15T14:45:36.221Z,100065.59
2023-04-15T14:48:02.648Z,100050.53
2023-04-15T14:50:29.057Z,100054.19
2023-04-15T14:52:55.357Z,100056.91
2023-04-15T14:55:21.837Z,100054.31
2023-04-15T14:57:48.191Z,100055.31
2023-04-15T15:00:16.279Z,100064.13
2023-04-15T15:02:43.149Z,100065.03
2023-04-15T15:05:10.846Z,100063.28
2023-04-15T15:07:43.331Z,100059.75
2023-04-15T15:10:09.799Z,100058.75
2023-04-15T15:12:36.259Z,100069.38
2023-04-15T15:15:12.292Z,100057.84
2023-04-15T15:17:42.449Z,100062.22
2023-04-15T15:20:09.126Z,100076.31
2023-04-15T15:22:35.433Z,100075.25
2023-04-15T15:25:02.072Z,100077.69
2023-04-15T15:27:28.470Z,100080.31
2023-04-15T15:29:56.570Z,100076.81
2023-04-15T15:32:22.958Z,100082.09
2023-04-15T15:34:49.309Z,100089.19
2023-04-15T15:37:15.612Z,100090.09
2023-04-15T15:39:41.988Z,100106.84
2023-04-15T15:42:08.273Z,100110.25
2023-04-15T15:44:36.175Z,100099.63
2023-04-15T15:47:02.549Z,100110.09
2023-04-15T15:49:28.876Z,100111.03
2023-04-15T15:51:55.941Z,100111.03
2023-04-15T15:54:22.476Z,100117.03
2023-04-15T15:56:49.972Z,100123.03
2023-04-15T15:59:16.483Z,100135.34
2023-04-15T16:01:44.012Z,100128.00
2023-04-15T16:04:10.766Z,100122.69
2023-04-15T16:06:37.332Z,100125.31
2023-04-15T16:09:04.315Z,100127.13
2023-04-15T16:11:30.948Z,100139.44
2023-04-15T16:13:57.344Z,100134.19
2023-04-15T16:16:24.172Z,100137.69
2023-04-15T16:18:50.962Z,100136.56
2023-04-15T16:21:17.314Z,100139.97
2023-04-15T16:26:10.022Z,100149.56
2023-04-15T16:28:36.322Z,100153.88
2023-04-15T16:31:02.719Z,100145.06
2023-04-15T16:33:29.123Z,100149.38
2023-04-15T16:35:55.541Z,100157.25
2023-04-15T16:38:21.963Z,100162.34
2023-04-15T16:40:48.278Z,100164.88
2023-04-15T16:43:14.663Z,100166.44
2023-04-15T16:45:41.025Z,100175.22
2023-04-15T16:48:07.400Z,100164.47
2023-04-15T16:50:33.755Z,100172.41
2023-04-15T16:53:01.088Z,100174.97
2023-04-15T16:55:27.411Z,100174.81
2023-04-15T16:58:00.594Z,100183.53
2023-04-15T17:00:29.915Z,100176.50
2023-04-15T17:02:56.496Z,100184.31
2023-04-15T17:05:23.003Z,100186.19
2023-04-15T17:07:49.546Z,100198.53
2023-04-15T17:10:16.182Z,100202.88
2023-04-15T17:12:42.777Z,100202.97
2023-04-15T17:15:09.800Z,100199.66
2023-04-15T17:17:36.281Z,100207.47
2023-04-15T17:20:03.507Z,100196.00
2023-04-15T17:22:29.816Z,100208.44
2023-04-15T17:24:56.227Z,100208.50
2023-04-15T17:27:22.804Z,100212.88
2023-04-15T17:29:49.241Z,100213.84
2023-04-15T17:32:15.829Z,100214.78
2023-04-15T17:34:50.697Z,100215.69
2023-04-15T17:37:17.801Z,100226.25
2023-04-15T17:39:44.224Z,100233.31
2023-04-15T17:42:11.236Z,100229.03
2023-04-15T17:44:37.587Z,100232.38
2023-04-15T17:47:03.930Z,100231.53
2023-04-15T17:49:31.171Z,100231.63
2023-04-15T17:51:57.703Z,100235.31
2023-04-15T17:54:24.018Z,100235.28
2023-04-15T17:56:50.579Z,100238.78
2023-04-15T17:59:17.253Z,100241.50
2023-04-15T18:01:45.357Z,100250.31
2023-04-15T18:04:12.352Z,100236.22
2023-04-15T18:06:39.023Z,100254.69
2023-04-15T18:09:05.715Z,100257.28
2023-04-15T18:11:33.219Z,100258.25
2023-04-15T18:13:59.983Z,100270.47
2023-04-15T18:16:26.506Z,100277.47
2023-04-15T18:18:54.085Z,100278.38
2023-04-15T18:21:20.594Z,100280.13
2023-04-15T18:23:47.046Z,100285.41
2023-04-15T18:26:14.019Z,100293.28
2023-04-15T18:28:40.307Z,100296.75
2023-04-15T18:31:06.787Z,100304.59
2023-04-15T18:33:35.668Z,100303.63
2023-04-15T18:36:05.146Z,100308.09
2023-04-15T18:38:31.731Z,100311.63
2023-04-15T18:40:58.775Z,100312.44
2023-04-15T18:43:25.259Z,100315.13
2023-04-15T18:45:52.923Z,100324.88
2023-04-15T18:48:19.286Z,100326.72
2023-04-15T18:50:45.826Z,100329.34
2023-04-15T18:53:12.162Z,100339.09
2023-04-15T18:55:39.691Z,100342.59
2023-04-15T18:58:08.756Z,100345.22
2023-04-15T19:00:41.372Z,100353.19
2023-04-15T19:03:08.038Z,100351.34
2023-04-15T19:05:35.051Z,100360.28
2023-04-15T19:08:01.581Z,100360.28
2023-04-15T19:10:28.279Z,100373.41
2023-04-15T19:12:55.356Z,100369.13
2023-04-15T19:15:21.684Z,100372.66
2023-04-15T19:17:48.205Z,100378.84
2023-04-15T19:20:14.598Z,100392.13
2023-04-15T19:22:41.595Z,100386.94
2023-04-15T19:25:08.328Z,100390.38
2023-04-15T19:27:34.781Z,100383.28
2023-04-15T19:30:01.908Z,100386.84
2023-04-15T19:32:28.391Z,100400.94
2023-04-15T19:34:54.786Z,100391.25
2023-04-15T19:37:21.123Z,100393.03
2023-04-15T19:39:47.561Z,100400.16
2023-04-15T19:42:13.923Z,100405.38
2023-04-15T19:44:42.760Z,100407.94
2023-04-15T19:47:10.594Z,100407.91
2023-04-15T19:49:37.709Z,100417.66
2023-04-15T19:52:04.366Z,100413.34
2023-04-15T19:54:32.146Z,100410.66
2023-04-15T19:56:58.952Z,100412.47
2023-04-15T19:59:25.420Z,100417.72
2023-04-15T20:01:52.682Z,100422.94
2023-04-15T20:04:19.270Z,100421.09
2023-04-15T20:06:45.760Z,100421.16
2023-04-15T20:09:12.383Z,100418.50
2023-04-15T20:12:47.849Z,100424.69
2023-04-15T20:14:25.514Z,100422.94
2023-04-15T20:16:51.909Z,100423.84
2023-04-15T20:19:18.265Z,100428.25
2023-04-15T20:21:45.297Z,100432.63
2023-04-15T20:24:11.692Z,100434.38
2023-04-15T20:26:38.074Z,100436.22
2023-04-15T20:29:04.654Z,100433.59
2023-04-15T20:31:31.186Z,100428.28
2023-04-15T20:33:57.555Z,100435.28
2023-04-15T20:36:23.903Z,100434.44
2023-04-15T20:38:50.245Z,100428.25
2023-04-15T20:41:16.623Z,100437.06
2023-04-15T20:43:42.950Z,100443.22
2023-04-15T20:46:20.373Z,100443.22
2023-04-15T20:48:47.991Z,100440.00
2023-04-15T20:51:15.121Z,100442.53
2023-04-15T20:53:41.958Z,100446.03
2023-04-15T20:56:08.460Z,100439.00
2023-04-15T20:58:34.752Z,100446.81
2023-04-15T21:01:02.119Z,100453.94
2023-04-15T21:03:28.788Z,100454.03
2023-04-15T21:05:55.331Z,100455.63
2023-04-15T21:08:28.960Z,100453.00
2023-04-15T21:10:56.395Z,100447.66
2023-04-15T21:13:23.939Z,100461.69
2023-04-15T21:15:53.220Z,100451.94
2023-04-15T21:18:21.276Z,100457.19
2023-04-15T21:20:56.495Z,100465.03
2023-04-15T21:23:22.830Z,100466.81
2023-04-15T21:25:49.187Z,100468.69
2023-04-15T21:28:15.569Z,100472.97
2023-04-15T21:30:41.923Z,100472.00
2023-04-15T21:33:08.218Z,100470.34
2023-04-15T21:35:34.526Z,100479.16
2023-04-15T21:38:00.832Z,100484.47
2023-04-15T21:40:27.138Z,100481.81
2023-04-15T21:42:53.521Z,100488.00
2023-04-15T21:45:19.871Z,100495.84
2023-04-15T21:48:00.862Z,100499.41
2023-04-15T21:50:32.604Z,100507.31
2023-04-15T21:52:58.968Z,100511.72
2023-04-15T21:55:25.487Z,100525.00
2023-04-15T21:57:51.818Z,100513.56
2023-04-15T22:00:18.137Z,100510.88
2023-04-15T22:02:44.697Z,100509.09
2023-04-15T22:05:11.780Z,100518.78
2023-04-15T22:07:38.098Z,100515.25
2023-04-15T22:10:04.696Z,100525.81
2023-04-15T22:12:31.322Z,100523.13
2023-04-15T22:14:57.680Z,100532.03
2023-04-15T22:17:24.151Z,100533.75
2023-04-15T22:19:50.540Z,100532.88
2023-04-15T22:22:16.964Z,100532.91
2023-04-15T22:24:43.307Z,100533.75
2023-04-15T22:27:09.716Z,100531.94
2023-04-15T22:29:36.167Z,100543.47
2023-04-15T22:32:02.465Z,100534.72
2023-04-15T22:34:28.755Z,100533.78
2023-04-15T22:36:55.101Z,100548.81
2023-04-15T22:39:21.493Z,100553.22
2023-04-15T22:41:48.405Z,100552.38
2023-04-15T22:44:14.785Z,100554.06
2023-04-15T22:46:41.334Z,100546.97
2023-04-15T22:49:09.270Z,100559.28
2023-04-15T22:51:36.681Z,100563.72
2023-04-15T22:54:03.095Z,100565.25
2023-04-15T22:56:29.410Z,100559.88
2023-04-15T22:58:55.848Z,100574.91
2023-04-15T23:01:22.227Z,100566.84
2023-04-15T23:03:57.070Z,100582.84
2023-04-15T23:06:32.835Z,100591.50
2023-04-15T23:08:59.239Z,100595.16
2023-04-15T23:11:25.594Z,100581.00
2023-04-15T23:13:52.914Z,100589.00
2023-04-15T23:16:19.447Z,100587.09
2023-04-15T23:18:45.853Z,100570.31
2023-04-15T23:21:12.200Z,100593.22
2023-04-15T23:23:38.508Z,100585.31
2023-04-15T23:26:04.989Z,100579.09
2023-04-15T23:28:31.336Z,100579.91
2023-04-15T23:31:00.342Z,100581.84
2023-04-15T23:33:27.246Z,100585.19
2023-04-15T23:35:53.689Z,100597.50
2023-04-15T23:38:19.995Z,100582.69
2023-04-15T23:40:46.320Z,100578.19
2023-04-15T23:43:13.361Z,100580.84
2023-04-15T23:45:40.142Z,100576.41
2023-04-15T23:48:06.784Z,100578.00
2023-04-15T23:50:33.421Z,100592.25
2023-04-15T23:52:59.842Z,100588.66
2023-04-15T23:55:26.187Z,100572.72
2023-04-15T23:57:52.481Z,100580.75
